sensor_id;sensor_type;location;lat;lon;timestamp;pressure;altitude;pressure_sealevel;temperature;humidity
58753;BME280;44525;46.052;13.610;2023-02-03T00:01:40;65501.63;;;-149.14;100.00
58753;BME280;44525;46.052;13.610;2023-02-03T00:04:05;65501.63;;;-149.14;100.00
58753;BME280;44525;46.052;13.610;2023-02-03T00:06:31;65501.63;;;-149.14;100.00
58753;BME280;44525;46.052;13.610;2023-02-03T00:08:57;65501.63;;;-149.14;100.00
58753;BME280;44525;46.052;13.610;2023-02-03T00:11:24;65501.63;;;-149.14;100.00
58753;BME280;44525;46.052;13.610;2023-02-03T00:13:49;65501.63;;;-149.14;100.00
58753;BME280;44525;46.052;13.610;2023-02-03T00:16:15;65501.63;;;-149.14;100.00
58753;BME280;44525;46.052;13.610;2023-02-03T00:18:40;65501.63;;;-149.14;100.00
58753;BME280;44525;46.052;13.610;2023-02-03T00:21:06;65501.63;;;-149.14;100.00
58753;BME280;44525;46.052;13.610;2023-02-03T00:23:31;65501.63;;;-149.14;100.00
58753;BME280;44525;46.052;13.610;2023-02-03T00:26:10;65501.63;;;-149.14;100.00
58753;BME280;44525;46.052;13.610;2023-02-03T00:28:36;65501.63;;;-149.14;100.00
58753;BME280;44525;46.052;13.610;2023-02-03T00:31:02;65501.63;;;-149.14;100.00
58753;BME280;44525;46.052;13.610;2023-02-03T00:33:28;65501.63;;;-149.14;100.00
58753;BME280;44525;46.052;13.610;2023-02-03T00:35:53;65501.63;;;-149.14;100.00
58753;BME280;44525;46.052;13.610;2023-02-03T00:38:18;65501.63;;;-149.14;100.00
58753;BME280;44525;46.052;13.610;2023-02-03T00:40:51;65501.63;;;-149.14;100.00
58753;BME280;44525;46.052;13.610;2023-02-03T00:43:17;65501.63;;;-149.14;100.00
58753;BME280;44525;46.052;13.610;2023-02-03T00:45:43;65501.63;;;-149.14;100.00
58753;BME280;44525;46.052;13.610;2023-02-03T00:48:08;65501.63;;;-149.14;100.00
58753;BME280;44525;46.052;13.610;2023-02-03T00:50:33;65501.63;;;-149.14;100.00
58753;BME280;44525;46.052;13.610;2023-02-03T00:52:59;65501.63;;;-149.14;100.00
58753;BME280;44525;46.052;13.610;2023-02-03T00:55:24;65501.63;;;-149.14;100.00
58753;BME280;44525;46.052;13.610;2023-02-03T00:57:50;65501.63;;;-149.14;100.00
58753;BME280;44525;46.052;13.610;2023-02-03T01:00:17;65501.63;;;-149.14;100.00
58753;BME280;44525;46.052;13.610;2023-02-03T01:02:43;65501.63;;;-149.14;100.00
58753;BME280;44525;46.052;13.610;2023-02-03T01:05:08;65501.63;;;-149.14;100.00
58753;BME280;44525;46.052;13.610;2023-02-03T01:07:33;65501.63;;;-149.14;100.00
58753;BME280;44525;46.052;13.610;2023-02-03T01:09:59;65501.63;;;-149.14;100.00
58753;BME280;44525;46.052;13.610;2023-02-03T01:12:24;65501.63;;;-149.14;100.00
58753;BME280;44525;46.052;13.610;2023-02-03T01:14:50;65501.63;;;-149.14;100.00
58753;BME280;44525;46.052;13.610;2023-02-03T01:17:15;65501.63;;;-149.14;100.00
58753;BME280;44525;46.052;13.610;2023-02-03T01:19:40;65501.63;;;-149.14;100.00
58753;BME280;44525;46.052;13.610;2023-02-03T01:22:06;65501.63;;;-149.14;100.00
58753;BME280;44525;46.052;13.610;2023-02-03T01:24:31;65501.63;;;-149.14;100.00
58753;BME280;44525;46.052;13.610;2023-02-03T01:26:57;65501.63;;;-149.14;100.00
58753;BME280;44525;46.052;13.610;2023-02-03T01:29:22;65501.63;;;-149.14;100.00
58753;BME280;44525;46.052;13.610;2023-02-03T01:31:47;65501.63;;;-149.14;100.00
58753;BME280;44525;46.052;13.610;2023-02-03T01:34:13;65501.63;;;-149.14;100.00
58753;BME280;44525;46.052;13.610;2023-02-03T01:36:40;65501.63;;;-149.14;100.00
58753;BME280;44525;46.052;13.610;2023-02-03T01:39:07;65501.63;;;-149.14;100.00
58753;BME280;44525;46.052;13.610;2023-02-03T01:41:35;65501.63;;;-149.14;100.00
58753;BME280;44525;46.052;13.610;2023-02-03T01:49:39;65501.63;;;-149.14;100.00
58753;BME280;44525;46.052;13.610;2023-02-03T01:52:06;65501.63;;;-149.14;100.00
58753;BME280;44525;46.052;13.610;2023-02-03T01:54:37;65501.63;;;-149.14;100.00
58753;BME280;44525;46.052;13.610;2023-02-03T01:57:10;65501.63;;;-149.14;100.00
58753;BME280;44525;46.052;13.610;2023-02-03T01:59:37;65501.63;;;-149.14;100.00
58753;BME280;44525;46.052;13.610;2023-02-03T02:02:03;65501.63;;;-149.14;100.00
58753;BME280;44525;46.052;13.610;2023-02-03T02:04:42;65501.63;;;-149.14;100.00
58753;BME280;44525;46.052;13.610;2023-02-03T02:07:13;65501.63;;;-149.14;100.00
58753;BME280;44525;46.052;13.610;2023-02-03T02:09:38;65501.63;;;-149.14;100.00
58753;BME280;44525;46.052;13.610;2023-02-03T02:12:04;65501.63;;;-149.14;100.00
58753;BME280;44525;46.052;13.610;2023-02-03T02:14:29;65501.63;;;-149.14;100.00
58753;BME280;44525;46.052;13.610;2023-02-03T02:17:06;65501.63;;;-149.14;100.00
58753;BME280;44525;46.052;13.610;2023-02-03T02:19:44;65501.63;;;-149.14;100.00
58753;BME280;44525;46.052;13.610;2023-02-03T02:30:44;65501.63;;;-149.14;100.00
58753;BME280;44525;46.052;13.610;2023-02-03T02:33:25;65501.63;;;-149.14;100.00
58753;BME280;44525;46.052;13.610;2023-02-03T02:36:01;65501.63;;;-149.14;100.00
58753;BME280;44525;46.052;13.610;2023-02-03T02:38:40;65501.63;;;-149.14;100.00
58753;BME280;44525;46.052;13.610;2023-02-03T02:41:28;65501.63;;;-149.14;100.00
58753;BME280;44525;46.052;13.610;2023-02-03T02:44:20;65501.63;;;-149.14;100.00
58753;BME280;44525;46.052;13.610;2023-02-03T02:46:51;65501.63;;;-149.14;100.00
58753;BME280;44525;46.052;13.610;2023-02-03T02:49:22;65501.63;;;-149.14;100.00
58753;BME280;44525;46.052;13.610;2023-02-03T02:51:51;65501.63;;;-149.14;100.00
58753;BME280;44525;46.052;13.610;2023-02-03T02:54:21;65501.63;;;-149.14;100.00
58753;BME280;44525;46.052;13.610;2023-02-03T02:56:54;65501.63;;;-149.14;100.00
58753;BME280;44525;46.052;13.610;2023-02-03T02:59:20;65501.63;;;-149.14;100.00
58753;BME280;44525;46.052;13.610;2023-02-03T03:01:45;65501.63;;;-149.14;100.00
58753;BME280;44525;46.052;13.610;2023-02-03T03:04:13;65501.63;;;-149.14;100.00
58753;BME280;44525;46.052;13.610;2023-02-03T03:06:44;65501.63;;;-149.14;100.00
58753;BME280;44525;46.052;13.610;2023-02-03T03:09:16;65501.63;;;-149.14;100.00
58753;BME280;44525;46.052;13.610;2023-02-03T03:11:49;65501.63;;;-149.14;100.00
58753;BME280;44525;46.052;13.610;2023-02-03T03:14:17;65501.63;;;-149.14;100.00
58753;BME280;44525;46.052;13.610;2023-02-03T03:16:48;65501.63;;;-149.14;100.00
58753;BME280;44525;46.052;13.610;2023-02-03T03:19:20;65501.63;;;-149.14;100.00
58753;BME280;44525;46.052;13.610;2023-02-03T03:21:51;65501.63;;;-149.14;100.00
58753;BME280;44525;46.052;13.610;2023-02-03T03:24:24;65501.63;;;-149.14;100.00
58753;BME280;44525;46.052;13.610;2023-02-03T03:29:29;65501.63;;;-149.14;100.00
58753;BME280;44525;46.052;13.610;2023-02-03T03:32:00;65501.63;;;-149.14;100.00
58753;BME280;44525;46.052;13.610;2023-02-03T03:34:25;65501.63;;;-149.14;100.00
58753;BME280;44525;46.052;13.610;2023-02-03T03:39:59;65501.63;;;-149.14;100.00
58753;BME280;44525;46.052;13.610;2023-02-03T03:45:09;65501.63;;;-149.14;100.00
58753;BME280;44525;46.052;13.610;2023-02-03T03:50:33;65501.63;;;-149.14;100.00
58753;BME280;44525;46.052;13.610;2023-02-03T03:53:02;65501.63;;;-149.14;100.00
58753;BME280;44525;46.052;13.610;2023-02-03T03:55:30;65501.63;;;-149.14;100.00
58753;BME280;44525;46.052;13.610;2023-02-03T03:58:09;65501.63;;;-149.14;100.00
58753;BME280;44525;46.052;13.610;2023-02-03T04:00:38;65501.63;;;-149.14;100.00
58753;BME280;44525;46.052;13.610;2023-02-03T04:03:13;65501.63;;;-149.14;100.00
58753;BME280;44525;46.052;13.610;2023-02-03T04:05:40;65501.63;;;-149.14;100.00
58753;BME280;44525;46.052;13.610;2023-02-03T04:08:05;65501.63;;;-149.14;100.00
58753;BME280;44525;46.052;13.610;2023-02-03T04:10:38;65501.63;;;-149.14;100.00
58753;BME280;44525;46.052;13.610;2023-02-03T04:13:05;65501.63;;;-149.14;100.00
58753;BME280;44525;46.052;13.610;2023-02-03T04:15:31;65501.63;;;-149.14;100.00
58753;BME280;44525;46.052;13.610;2023-02-03T04:17:57;65501.63;;;-149.14;100.00
58753;BME280;44525;46.052;13.610;2023-02-03T04:20:23;65501.63;;;-149.14;100.00
58753;BME280;44525;46.052;13.610;2023-02-03T04:22:49;65501.63;;;-149.14;100.00
58753;BME280;44525;46.052;13.610;2023-02-03T04:25:15;65501.63;;;-149.14;100.00
58753;BME280;44525;46.052;13.610;2023-02-03T04:27:40;65501.63;;;-149.14;100.00
58753;BME280;44525;46.052;13.610;2023-02-03T04:30:06;65501.63;;;-149.14;100.00
58753;BME280;44525;46.052;13.610;2023-02-03T04:32:32;65501.63;;;-149.14;100.00
58753;BME280;44525;46.052;13.610;2023-02-03T04:35:00;65501.63;;;-149.14;100.00
58753;BME280;44525;46.052;13.610;2023-02-03T04:37:25;65501.63;;;-149.14;100.00
58753;BME280;44525;46.052;13.610;2023-02-03T04:39:52;65501.63;;;-149.14;100.00
58753;BME280;44525;46.052;13.610;2023-02-03T04:42:18;65501.63;;;-149.14;100.00
58753;BME280;44525;46.052;13.610;2023-02-03T04:44:43;65501.63;;;-149.14;100.00
58753;BME280;44525;46.052;13.610;2023-02-03T04:47:09;65501.63;;;-149.14;100.00
58753;BME280;44525;46.052;13.610;2023-02-03T04:49:34;65501.63;;;-149.14;100.00
58753;BME280;44525;46.052;13.610;2023-02-03T04:52:00;65501.63;;;-149.14;100.00
58753;BME280;44525;46.052;13.610;2023-02-03T04:54:25;65501.63;;;-149.14;100.00
58753;BME280;44525;46.052;13.610;2023-02-03T04:56:50;65501.63;;;-149.14;100.00
58753;BME280;44525;46.052;13.610;2023-02-03T04:59:16;65501.63;;;-149.14;100.00
58753;BME280;44525;46.052;13.610;2023-02-03T05:01:41;65501.63;;;-149.14;100.00
58753;BME280;44525;46.052;13.610;2023-02-03T05:04:07;65501.63;;;-149.14;100.00
58753;BME280;44525;46.052;13.610;2023-02-03T05:06:32;65501.63;;;-149.14;100.00
58753;BME280;44525;46.052;13.610;2023-02-03T05:08:58;65501.63;;;-149.14;100.00
58753;BME280;44525;46.052;13.610;2023-02-03T05:11:23;65501.63;;;-149.14;100.00
58753;BME280;44525;46.052;13.610;2023-02-03T05:13:49;65501.63;;;-149.14;100.00
58753;BME280;44525;46.052;13.610;2023-02-03T05:16:15;65501.63;;;-149.14;100.00
58753;BME280;44525;46.052;13.610;2023-02-03T05:18:40;65501.63;;;-149.14;100.00
58753;BME280;44525;46.052;13.610;2023-02-03T05:21:06;65501.63;;;-149.14;100.00
58753;BME280;44525;46.052;13.610;2023-02-03T05:23:32;65501.63;;;-149.14;100.00
58753;BME280;44525;46.052;13.610;2023-02-03T05:25:57;65501.63;;;-149.14;100.00
58753;BME280;44525;46.052;13.610;2023-02-03T05:28:23;65501.63;;;-149.14;100.00
58753;BME280;44525;46.052;13.610;2023-02-03T05:30:48;65501.63;;;-149.14;100.00
58753;BME280;44525;46.052;13.610;2023-02-03T05:33:13;65501.63;;;-149.14;100.00
58753;BME280;44525;46.052;13.610;2023-02-03T05:35:39;65501.63;;;-149.14;100.00
58753;BME280;44525;46.052;13.610;2023-02-03T05:38:04;65501.63;;;-149.14;100.00
58753;BME280;44525;46.052;13.610;2023-02-03T05:40:30;65501.63;;;-149.14;100.00
58753;BME280;44525;46.052;13.610;2023-02-03T05:43:14;65501.63;;;-149.14;100.00
58753;BME280;44525;46.052;13.610;2023-02-03T05:45:39;65501.63;;;-149.14;100.00
58753;BME280;44525;46.052;13.610;2023-02-03T05:48:04;65501.63;;;-149.14;100.00
58753;BME280;44525;46.052;13.610;2023-02-03T05:50:31;65501.63;;;-149.14;100.00
58753;BME280;44525;46.052;13.610;2023-02-03T05:53:02;65501.63;;;-149.14;100.00
58753;BME280;44525;46.052;13.610;2023-02-03T05:55:29;65501.63;;;-149.14;100.00
58753;BME280;44525;46.052;13.610;2023-02-03T05:57:55;65501.63;;;-149.14;100.00
58753;BME280;44525;46.052;13.610;2023-02-03T06:00:21;65501.63;;;-149.14;100.00
58753;BME280;44525;46.052;13.610;2023-02-03T06:02:55;65501.63;;;-149.14;100.00
58753;BME280;44525;46.052;13.610;2023-02-03T06:05:21;65501.63;;;-149.14;100.00
58753;BME280;44525;46.052;13.610;2023-02-03T06:07:48;65501.63;;;-149.14;100.00
58753;BME280;44525;46.052;13.610;2023-02-03T06:10:14;65501.63;;;-149.14;100.00
58753;BME280;44525;46.052;13.610;2023-02-03T06:12:40;65501.63;;;-149.14;100.00
58753;BME280;44525;46.052;13.610;2023-02-03T06:15:05;65501.63;;;-149.14;100.00
58753;BME280;44525;46.052;13.610;2023-02-03T06:17:31;65501.63;;;-149.14;100.00
58753;BME280;44525;46.052;13.610;2023-02-03T06:19:57;65501.63;;;-149.14;100.00
58753;BME280;44525;46.052;13.610;2023-02-03T06:22:22;65501.63;;;-149.14;100.00
58753;BME280;44525;46.052;13.610;2023-02-03T06:24:48;65501.63;;;-149.14;100.00
58753;BME280;44525;46.052;13.610;2023-02-03T06:27:14;65501.63;;;-149.14;100.00
58753;BME280;44525;46.052;13.610;2023-02-03T06:29:40;65501.63;;;-149.14;100.00
58753;BME280;44525;46.052;13.610;2023-02-03T06:32:06;65501.63;;;-149.14;100.00
58753;BME280;44525;46.052;13.610;2023-02-03T06:34:32;65501.63;;;-149.14;100.00
58753;BME280;44525;46.052;13.610;2023-02-03T06:36:58;65501.63;;;-149.14;100.00
58753;BME280;44525;46.052;13.610;2023-02-03T06:39:23;65501.63;;;-149.14;100.00
58753;BME280;44525;46.052;13.610;2023-02-03T06:41:49;65501.63;;;-149.14;100.00
58753;BME280;44525;46.052;13.610;2023-02-03T06:44:16;65501.63;;;-149.14;100.00
58753;BME280;44525;46.052;13.610;2023-02-03T06:46:41;65501.63;;;-149.14;100.00
58753;BME280;44525;46.052;13.610;2023-02-03T06:49:07;65501.63;;;-149.14;100.00
58753;BME280;44525;46.052;13.610;2023-02-03T06:51:32;65501.63;;;-149.14;100.00
58753;BME280;44525;46.052;13.610;2023-02-03T06:53:57;65501.63;;;-149.14;100.00
58753;BME280;44525;46.052;13.610;2023-02-03T06:56:23;65501.63;;;-149.14;100.00
58753;BME280;44525;46.052;13.610;2023-02-03T06:58:48;65501.63;;;-149.14;100.00
58753;BME280;44525;46.052;13.610;2023-02-03T07:01:14;65501.63;;;-149.14;100.00
58753;BME280;44525;46.052;13.610;2023-02-03T07:03:39;65501.63;;;-149.14;100.00
58753;BME280;44525;46.052;13.610;2023-02-03T07:06:05;65501.63;;;-149.14;100.00
58753;BME280;44525;46.052;13.610;2023-02-03T07:08:30;65501.63;;;-149.14;100.00
58753;BME280;44525;46.052;13.610;2023-02-03T07:10:56;65501.63;;;-149.14;100.00
58753;BME280;44525;46.052;13.610;2023-02-03T07:13:21;65501.63;;;-149.14;100.00
58753;BME280;44525;46.052;13.610;2023-02-03T07:15:46;65501.63;;;-149.14;100.00
58753;BME280;44525;46.052;13.610;2023-02-03T07:18:12;65501.63;;;-149.14;100.00
58753;BME280;44525;46.052;13.610;2023-02-03T07:20:37;65501.63;;;-149.14;100.00
58753;BME280;44525;46.052;13.610;2023-02-03T07:23:03;65501.63;;;-149.14;100.00
58753;BME280;44525;46.052;13.610;2023-02-03T07:25:29;65501.63;;;-149.14;100.00
58753;BME280;44525;46.052;13.610;2023-02-03T07:27:55;65501.63;;;-149.14;100.00
58753;BME280;44525;46.052;13.610;2023-02-03T07:30:21;65501.63;;;-149.14;100.00
58753;BME280;44525;46.052;13.610;2023-02-03T07:32:50;65501.63;;;-149.14;100.00
58753;BME280;44525;46.052;13.610;2023-02-03T07:35:16;65501.63;;;-149.14;100.00
58753;BME280;44525;46.052;13.610;2023-02-03T07:37:42;65501.63;;;-149.14;100.00
58753;BME280;44525;46.052;13.610;2023-02-03T07:40:10;65501.63;;;-149.14;100.00
58753;BME280;44525;46.052;13.610;2023-02-03T07:42:40;65501.63;;;-149.14;100.00
58753;BME280;44525;46.052;13.610;2023-02-03T07:45:07;65501.63;;;-149.14;100.00
58753;BME280;44525;46.052;13.610;2023-02-03T07:47:32;65501.63;;;-149.14;100.00
58753;BME280;44525;46.052;13.610;2023-02-03T07:49:58;65501.63;;;-149.14;100.00
58753;BME280;44525;46.052;13.610;2023-02-03T07:52:23;65501.63;;;-149.14;100.00
58753;BME280;44525;46.052;13.610;2023-02-03T07:54:48;65501.63;;;-149.14;100.00
58753;BME280;44525;46.052;13.610;2023-02-03T07:57:14;65501.63;;;-149.14;100.00
58753;BME280;44525;46.052;13.610;2023-02-03T07:59:39;65501.63;;;-149.14;100.00
58753;BME280;44525;46.052;13.610;2023-02-03T08:02:04;65501.63;;;-149.14;100.00
58753;BME280;44525;46.052;13.610;2023-02-03T08:04:30;65501.63;;;-149.14;100.00
58753;BME280;44525;46.052;13.610;2023-02-03T08:06:55;65501.63;;;-149.14;100.00
58753;BME280;44525;46.052;13.610;2023-02-03T08:09:21;65501.63;;;-149.14;100.00
58753;BME280;44525;46.052;13.610;2023-02-03T08:11:46;65501.63;;;-149.14;100.00
58753;BME280;44525;46.052;13.610;2023-02-03T08:14:12;65501.63;;;19.39;100.00
58753;BME280;44525;46.052;13.610;2023-02-03T08:16:38;65501.63;;;-149.14;100.00
58753;BME280;44525;46.052;13.610;2023-02-03T08:19:03;65501.63;;;-149.14;100.00
58753;BME280;44525;46.052;13.610;2023-02-03T08:21:29;65501.63;;;-149.14;100.00
58753;BME280;44525;46.052;13.610;2023-02-03T08:23:55;65501.63;;;19.41;100.00
58753;BME280;44525;46.052;13.610;2023-02-03T08:26:20;65501.63;;;-149.14;100.00
58753;BME280;44525;46.052;13.610;2023-02-03T08:28:49;65501.63;;;-149.14;100.00
58753;BME280;44525;46.052;13.610;2023-02-03T08:31:14;65501.63;;;-149.14;100.00
58753;BME280;44525;46.052;13.610;2023-02-03T08:33:40;65501.63;;;-149.14;100.00
58753;BME280;44525;46.052;13.610;2023-02-03T08:36:06;65501.63;;;-149.14;100.00
58753;BME280;44525;46.052;13.610;2023-02-03T08:38:31;65501.63;;;-149.14;100.00
58753;BME280;44525;46.052;13.610;2023-02-03T08:40:57;65501.63;;;-149.14;100.00
58753;BME280;44525;46.052;13.610;2023-02-03T08:43:22;65501.63;;;-149.14;100.00
58753;BME280;44525;46.052;13.610;2023-02-03T08:45:48;65501.63;;;-149.14;100.00
58753;BME280;44525;46.052;13.610;2023-02-03T08:48:13;65501.63;;;-149.14;100.00
58753;BME280;44525;46.052;13.610;2023-02-03T08:50:42;65501.63;;;-149.14;100.00
58753;BME280;44525;46.052;13.610;2023-02-03T08:53:09;65501.63;;;-149.14;100.00
58753;BME280;44525;46.052;13.610;2023-02-03T08:55:38;65501.63;;;-149.14;100.00
58753;BME280;44525;46.052;13.610;2023-02-03T08:58:03;65501.63;;;-149.14;100.00
58753;BME280;44525;46.052;13.610;2023-02-03T09:00:29;65501.63;;;-149.14;100.00
58753;BME280;44525;46.052;13.610;2023-02-03T09:02:54;65501.63;;;-149.14;100.00
58753;BME280;44525;46.052;13.610;2023-02-03T09:05:20;65501.63;;;-149.14;100.00
58753;BME280;44525;46.052;13.610;2023-02-03T09:07:46;65501.63;;;-149.14;100.00
58753;BME280;44525;46.052;13.610;2023-02-03T09:10:11;65501.63;;;-149.14;100.00
58753;BME280;44525;46.052;13.610;2023-02-03T09:12:37;65501.63;;;-149.14;100.00
58753;BME280;44525;46.052;13.610;2023-02-03T09:15:02;65501.63;;;-149.14;100.00
58753;BME280;44525;46.052;13.610;2023-02-03T09:17:28;65501.63;;;-149.14;100.00
58753;BME280;44525;46.052;13.610;2023-02-03T09:19:53;65501.63;;;-149.14;100.00
58753;BME280;44525;46.052;13.610;2023-02-03T09:22:18;65501.63;;;-149.14;100.00
58753;BME280;44525;46.052;13.610;2023-02-03T09:24:44;65501.63;;;-149.14;100.00
58753;BME280;44525;46.052;13.610;2023-02-03T09:27:09;65501.63;;;-149.14;100.00
58753;BME280;44525;46.052;13.610;2023-02-03T09:29:35;65501.63;;;-149.14;100.00
58753;BME280;44525;46.052;13.610;2023-02-03T09:32:00;65501.63;;;-149.14;100.00
58753;BME280;44525;46.052;13.610;2023-02-03T09:34:31;65501.63;;;-149.14;100.00
58753;BME280;44525;46.052;13.610;2023-02-03T09:36:56;65501.63;;;-149.14;100.00
58753;BME280;44525;46.052;13.610;2023-02-03T09:39:22;65501.63;;;-149.14;100.00
58753;BME280;44525;46.052;13.610;2023-02-03T09:45:13;65501.63;;;-149.14;100.00
58753;BME280;44525;46.052;13.610;2023-02-03T09:47:42;65501.63;;;-149.14;100.00
58753;BME280;44525;46.052;13.610;2023-02-03T09:50:18;65501.63;;;-149.14;100.00
58753;BME280;44525;46.052;13.610;2023-02-03T09:52:45;65501.63;;;-149.14;100.00
58753;BME280;44525;46.052;13.610;2023-02-03T09:58:17;65501.63;;;-149.14;100.00
58753;BME280;44525;46.052;13.610;2023-02-03T10:01:02;65501.63;;;-149.14;100.00
58753;BME280;44525;46.052;13.610;2023-02-03T10:03:51;65501.63;;;-149.14;100.00
58753;BME280;44525;46.052;13.610;2023-02-03T10:06:27;65501.63;;;-149.14;100.00
58753;BME280;44525;46.052;13.610;2023-02-03T10:19:42;65501.63;;;-149.14;100.00
58753;BME280;44525;46.052;13.610;2023-02-03T10:22:17;65501.63;;;-149.14;100.00
58753;BME280;44525;46.052;13.610;2023-02-03T10:24:56;65501.63;;;-149.14;100.00
58753;BME280;44525;46.052;13.610;2023-02-03T10:27:24;65501.63;;;-149.14;100.00
58753;BME280;44525;46.052;13.610;2023-02-03T10:29:59;65501.63;;;-149.14;100.00
58753;BME280;44525;46.052;13.610;2023-02-03T10:32:26;65501.63;;;-149.14;100.00
58753;BME280;44525;46.052;13.610;2023-02-03T10:34:52;65501.63;;;-149.14;100.00
58753;BME280;44525;46.052;13.610;2023-02-03T10:37:34;65501.63;;;-149.14;100.00
58753;BME280;44525;46.052;13.610;2023-02-03T10:40:02;65501.63;;;-149.14;100.00
58753;BME280;44525;46.052;13.610;2023-02-03T10:42:29;65501.63;;;-149.14;100.00
58753;BME280;44525;46.052;13.610;2023-02-03T10:45:16;65501.63;;;-149.14;100.00
58753;BME280;44525;46.052;13.610;2023-02-03T10:47:45;65501.63;;;-149.14;100.00
58753;BME280;44525;46.052;13.610;2023-02-03T10:50:20;65501.63;;;-149.14;100.00
58753;BME280;44525;46.052;13.610;2023-02-03T10:52:46;65501.63;;;-149.14;100.00
58753;BME280;44525;46.052;13.610;2023-02-03T10:57:47;65501.63;;;-149.14;100.00
58753;BME280;44525;46.052;13.610;2023-02-03T11:00:32;65501.63;;;-149.14;100.00
58753;BME280;44525;46.052;13.610;2023-02-03T11:03:27;65501.63;;;-149.14;100.00
58753;BME280;44525;46.052;13.610;2023-02-03T11:06:15;65501.63;;;-149.14;100.00
58753;BME280;44525;46.052;13.610;2023-02-03T11:08:44;65501.63;;;-149.14;100.00
58753;BME280;44525;46.052;13.610;2023-02-03T11:11:25;65501.63;;;-149.14;100.00
58753;BME280;44525;46.052;13.610;2023-02-03T11:14:09;65501.63;;;-149.14;100.00
58753;BME280;44525;46.052;13.610;2023-02-03T11:16:36;65501.63;;;-149.14;100.00
58753;BME280;44525;46.052;13.610;2023-02-03T11:19:04;65501.63;;;-149.14;100.00
58753;BME280;44525;46.052;13.610;2023-02-03T11:26:50;65501.63;;;-149.14;100.00
58753;BME280;44525;46.052;13.610;2023-02-03T11:31:48;65501.63;;;-149.14;100.00
58753;BME280;44525;46.052;13.610;2023-02-03T11:34:18;65501.63;;;-149.14;100.00
58753;BME280;44525;46.052;13.610;2023-02-03T11:36:45;65501.63;;;-149.14;100.00
58753;BME280;44525;46.052;13.610;2023-02-03T11:41:45;65501.63;;;-149.14;100.00
58753;BME280;44525;46.052;13.610;2023-02-03T11:44:19;65501.63;;;-149.14;100.00
58753;BME280;44525;46.052;13.610;2023-02-03T11:46:45;65501.63;;;-149.14;100.00
58753;BME280;44525;46.052;13.610;2023-02-03T15:48:05;101246.00;;;9.30;74.76
58753;BME280;44525;46.052;13.610;2023-02-03T15:50:51;101250.25;;;9.21;75.62
58753;BME280;44525;46.052;13.610;2023-02-03T15:53:56;101246.81;;;9.30;74.55
58753;BME280;44525;46.052;13.610;2023-02-03T15:59:00;101242.91;;;9.16;76.24
58753;BME280;44525;46.052;13.610;2023-02-03T16:01:26;101236.06;;;9.08;76.28
58753;BME280;44525;46.052;13.610;2023-02-03T16:03:53;101234.88;;;8.99;76.06
58753;BME280;44525;46.052;13.610;2023-02-03T16:06:33;101227.81;;;8.98;76.71
58753;BME280;44525;46.052;13.610;2023-02-03T16:09:05;101235.63;;;8.94;76.46
58753;BME280;44525;46.052;13.610;2023-02-03T16:11:35;101230.47;;;8.93;77.38
58753;BME280;44525;46.052;13.610;2023-02-03T16:14:06;101229.63;;;8.87;78.54
58753;BME280;44525;46.052;13.610;2023-02-03T16:16:42;101226.28;;;8.80;78.56
58753;BME280;44525;46.052;13.610;2023-02-03T16:19:22;101216.69;;;8.72;78.95
58753;BME280;44525;46.052;13.610;2023-02-03T16:29:44;101200.16;;;8.69;79.08
58753;BME280;44525;46.052;13.610;2023-02-03T16:32:27;101205.59;;;8.47;80.27
58753;BME280;44525;46.052;13.610;2023-02-03T16:35:11;101227.97;;;8.42;80.37
58753;BME280;44525;46.052;13.610;2023-02-03T16:38:04;101229.81;;;8.36;80.86
58753;BME280;44525;46.052;13.610;2023-02-03T16:40:48;101225.41;;;8.30;80.21
58753;BME280;44525;46.052;13.610;2023-02-03T16:43:32;101218.22;;;8.19;80.81
58753;BME280;44525;46.052;13.610;2023-02-03T16:46:15;101219.63;;;8.04;80.63
58753;BME280;44525;46.052;13.610;2023-02-03T16:48:59;101226.78;;;8.11;81.62
58753;BME280;44525;46.052;13.610;2023-02-03T16:51:43;101208.34;;;8.07;81.32
58753;BME280;44525;46.052;13.610;2023-02-03T16:54:11;101186.19;;;8.11;81.43
58753;BME280;44525;46.052;13.610;2023-02-03T16:56:42;101166.16;;;7.89;81.58
58753;BME280;44525;46.052;13.610;2023-02-03T16:59:08;101165.34;;;7.89;81.59
58753;BME280;44525;46.052;13.610;2023-02-03T17:01:33;101166.63;;;8.03;81.57
58753;BME280;44525;46.052;13.610;2023-02-03T17:03:59;101173.25;;;7.96;81.97
58753;BME280;44525;46.052;13.610;2023-02-03T17:06:25;101200.44;;;7.67;83.30
58753;BME280;44525;46.052;13.610;2023-02-03T17:08:50;101207.81;;;7.71;82.27
58753;BME280;44525;46.052;13.610;2023-02-03T17:11:18;101200.75;;;7.70;82.50
58753;BME280;44525;46.052;13.610;2023-02-03T17:13:45;101195.28;;;7.65;82.44
58753;BME280;44525;46.052;13.610;2023-02-03T17:16:14;101192.13;;;7.51;83.12
58753;BME280;44525;46.052;13.610;2023-02-03T17:18:41;101183.25;;;7.39;84.12
58753;BME280;44525;46.052;13.610;2023-02-03T17:21:10;101176.47;;;7.36;84.31
58753;BME280;44525;46.052;13.610;2023-02-03T17:23:36;101158.13;;;7.22;84.77
58753;BME280;44525;46.052;13.610;2023-02-03T17:26:02;101157.88;;;7.23;84.96
58753;BME280;44525;46.052;13.610;2023-02-03T17:28:28;101146.75;;;7.02;85.38
58753;BME280;44525;46.052;13.610;2023-02-03T17:30:55;101146.31;;;6.94;84.62
58753;BME280;44525;46.052;13.610;2023-02-03T17:33:21;101151.66;;;7.06;84.29
58753;BME280;44525;46.052;13.610;2023-02-03T17:35:46;101160.06;;;6.75;85.55
58753;BME280;44525;46.052;13.610;2023-02-03T17:38:12;101155.31;;;6.82;85.44